Time;durP1;ratioP1;P1;durP2;ratioP2;P2;SDS_P1;SDS_P2;PMS_P1;PMS_P2;Temp;Humidity;BMP_temperature;BMP_pressure;BME280_temperature;BME280_humidity;BME280_pressure;Samples;Min_cycle;Max_cycle;Signal;HPM_P1;HPM_P2
2023/04/16 00:00:12;;;;;;;4.67;1.40;;;;;;;7.71;100.00;102155.28;5131218;27;20299;-35
2023/04/16 00:02:38;;;;;;;6.13;1.83;;;;;;;7.82;100.00;102176.41;5130910;27;20019;-35
2023/04/16 00:05:03;;;;;;;5.70;1.73;;;;;;;7.84;100.00;102174.38;5131735;27;20023;-35
2023/04/16 00:07:29;;;;;;;6.72;1.80;;;;;;;7.83;100.00;102170.00;5130769;27;20028;-36
2023/04/16 00:09:54;;;;;;;6.28;1.88;;;;;;;7.81;100.00;102165.81;5131392;27;20032;-35
2023/04/16 00:12:20;;;;;;;8.07;2.33;;;;;;;7.88;100.00;102167.63;5123484;28;20424;-35
2023/04/16 00:14:45;;;;;;;8.23;2.03;;;;;;;7.86;100.00;102172.34;5116989;27;20020;-35
2023/04/16 00:17:11;;;;;;;7.05;1.90;;;;;;;7.86;100.00;102179.59;5117208;28;20272;-35
2023/04/16 00:19:37;;;;;;;5.90;1.70;;;;;;;7.83;100.00;102175.41;5116838;28;20028;-35
2023/04/16 00:22:02;;;;;;;6.68;2.00;;;;;;;7.80;100.00;102169.53;5116876;28;20034;-35
2023/04/16 00:24:27;;;;;;;7.00;2.10;;;;;;;7.85;100.00;102176.03;5117676;28;20027;-35
2023/04/16 00:26:53;;;;;;;8.60;1.97;;;;;;;7.78;100.00;102167.03;5116711;28;20023;-35
2023/04/16 00:29:18;;;;;;;8.63;2.53;;;;;;;7.85;100.00;102175.22;5117501;28;20035;-35
2023/04/16 00:31:44;;;;;;;6.30;1.87;;;;;;;7.83;100.00;102170.00;5116635;28;20507;-35
2023/04/16 00:34:09;;;;;;;6.65;2.58;;;;;;;7.83;100.00;102172.72;5117116;28;20027;-35
2023/04/16 00:36:35;;;;;;;8.17;2.47;;;;;;;7.83;100.00;102174.56;5116810;28;20104;-35
2023/04/16 00:39:00;;;;;;;5.65;2.47;;;;;;;7.80;100.00;102183.81;5116504;28;20019;-35
2023/04/16 00:41:26;;;;;;;11.43;2.57;;;;;;;7.84;100.00;102181.63;5116158;28;20019;-35
2023/04/16 00:43:51;;;;;;;8.52;2.25;;;;;;;7.84;100.00;102173.53;5116414;28;20026;-35
2023/04/16 00:46:22;;;;;;;6.05;2.30;;;;;;;7.83;100.00;102177.25;5116398;28;20027;-35
2023/04/16 00:48:48;;;;;;;7.10;2.47;;;;;;;7.78;100.00;102169.72;5116537;28;20402;-35
2023/04/16 00:51:14;;;;;;;8.50;2.35;;;;;;;7.77;100.00;102162.66;5115976;28;20031;-35
2023/04/16 00:53:40;;;;;;;11.15;3.08;;;;;;;7.80;100.00;102173.06;5116211;28;20072;-35
2023/04/16 00:56:06;;;;;;;7.85;2.63;;;;;;;7.80;100.00;102170.38;5116215;28;20090;-35
2023/04/16 00:58:33;;;;;;;8.70;2.67;;;;;;;7.70;100.00;102154.44;5116141;28;20447;-35
2023/04/16 01:00:59;;;;;;;6.18;2.10;;;;;;;7.82;100.00;102171.03;5116362;28;20100;-35
2023/04/16 01:03:39;;;;;;;5.97;2.50;;;;;;;7.82;100.00;102165.66;5115990;27;20024;-35
2023/04/16 01:06:06;;;;;;;9.52;2.80;;;;;;;7.81;100.00;102165.81;5116813;28;20038;-35
2023/04/16 01:08:31;;;;;;;8.73;2.50;;;;;;;7.81;100.00;102169.38;5115908;28;20028;-35
2023/04/16 01:10:57;;;;;;;8.57;2.78;;;;;;;7.83;100.00;102169.19;5115868;28;20470;-35
2023/04/16 01:13:22;;;;;;;12.43;3.07;;;;;;;7.77;100.00;102161.81;5115868;28;20023;-36
2023/04/16 01:15:47;;;;;;;7.23;2.90;;;;;;;7.80;100.00;102170.38;5115858;28;20072;-35
2023/04/16 01:18:17;;;;;;;10.17;2.97;;;;;;;7.70;100.00;102150.91;5115720;28;20096;-35
2023/04/16 01:20:43;;;;;;;9.73;2.80;;;;;;;7.68;100.00;102151.13;5115918;28;20023;-36
2023/04/16 01:23:08;;;;;;;8.65;2.67;;;;;;;7.75;100.00;102160.13;5115108;28;20157;-36
2023/04/16 01:25:33;;;;;;;8.23;2.60;;;;;;;7.75;100.00;102164.69;5115787;28;20030;-35
2023/04/16 01:27:59;;;;;;;5.67;2.37;;;;;;;7.71;100.00;102157.97;5115547;27;20023;-35
2023/04/16 01:30:24;;;;;;;7.57;2.60;;;;;;;7.76;100.00;102163.69;5115156;28;20260;-35
2023/04/16 01:32:50;;;;;;;15.32;3.58;;;;;;;7.73;100.00;102153.25;5115420;28;20020;-35
2023/04/16 01:35:17;;;;;;;9.05;2.60;;;;;;;7.81;100.00;102169.38;5116354;28;20073;-35
2023/04/16 01:37:42;;;;;;;6.53;2.50;;;;;;;7.82;100.00;102175.59;5115309;28;20088;-35
2023/04/16 01:40:08;;;;;;;6.70;2.60;;;;;;;7.75;100.00;102173.59;5115372;27;20015;-35
2023/04/16 01:42:33;;;;;;;5.88;1.90;;;;;;;7.82;100.00;102171.03;5115245;28;20099;-35
2023/04/16 01:44:59;;;;;;;6.87;2.67;;;;;;;7.84;100.00;102177.06;5115009;28;20076;-35
2023/04/16 01:47:24;;;;;;;7.13;2.77;;;;;;;7.79;100.00;102167.84;5115169;28;20015;-35
2023/04/16 01:49:50;;;;;;;8.68;2.72;;;;;;;7.83;100.00;102178.09;5115725;28;20024;-35
2023/04/16 01:52:15;;;;;;;6.53;2.28;;;;;;;7.84;100.00;102166.28;5115542;28;20023;-35
2023/04/16 01:54:40;;;;;;;6.97;2.80;;;;;;;7.83;100.00;102163.78;5115909;28;20106;-35
2023/04/16 01:57:06;;;;;;;6.10;2.57;;;;;;;7.86;100.00;102175.06;5115826;28;20022;-35
2023/04/16 01:59:31;;;;;;;5.97;2.57;;;;;;;7.85;100.00;102178.75;5115044;28;20344;-35
2023/04/16 02:02:04;;;;;;;5.13;2.20;;;;;;;7.85;100.00;102175.22;5113991;28;20070;-35
2023/04/16 02:04:30;;;;;;;4.93;2.40;;;;;;;7.85;100.00;102172.50;5115715;28;20031;-35
2023/04/16 02:06:56;;;;;;;;;;;;;;;7.90;100.00;102176.34;5115870;28;20073;-35
2023/04/16 02:09:21;;;;;;;7.38;2.40;;;;;;;7.87;100.00;102173.19;5114813;28;19912;-35
2023/04/16 02:11:46;;;;;;;5.70;2.43;;;;;;;7.87;100.00;102174.03;5113810;28;20035;-35
2023/04/16 02:14:12;;;;;;;7.00;2.70;;;;;;;7.89;100.00;102174.66;5114946;28;20269;-36
2023/04/16 02:16:37;;;;;;;5.53;2.60;;;;;;;7.83;100.00;102161.94;5115013;28;20016;-35
2023/04/16 02:19:03;;;;;;;6.23;2.87;;;;;;;7.84;100.00;102173.53;5113356;28;20100;-35
2023/04/16 02:21:28;;;;;;;5.20;2.35;;;;;;;7.83;100.00;102174.56;5114762;28;20092;-36
2023/04/16 02:23:54;;;;;;;7.67;2.50;;;;;;;7.83;100.00;102172.72;5114442;28;20444;-36
2023/04/16 02:26:20;;;;;;;4.80;2.38;;;;;;;7.82;100.00;102172.91;5114491;28;20031;-35
2023/04/16 02:28:45;;;;;;;5.57;2.30;;;;;;;7.84;100.00;102176.22;5115808;28;20030;-36
2023/04/16 02:31:10;;;;;;;5.70;2.53;;;;;;;7.81;100.00;102173.88;5114240;28;20034;-36
2023/04/16 02:33:36;;;;;;;5.60;2.40;;;;;;;7.77;100.00;102170.75;5114082;28;20026;-36
2023/04/16 02:36:01;;;;;;;4.63;2.17;;;;;;;7.75;100.00;102161.97;5114686;28;20024;-36
2023/04/16 02:38:26;;;;;;;5.47;2.47;;;;;;;7.80;100.00;102173.06;5114036;28;20070;-36
2023/04/16 02:40:52;;;;;;;7.93;2.90;;;;;;;7.67;100.00;102159.38;5113907;28;20026;-36
2023/04/16 02:43:17;;;;;;;8.93;3.00;;;;;;;7.68;100.00;102166.44;5114201;28;20020;-35
2023/04/16 02:45:43;;;;;;;6.03;2.93;;;;;;;7.73;100.00;102178.34;5114231;28;20050;-36
2023/04/16 02:48:08;;;;;;;7.10;3.20;;;;;;;7.67;100.00;102178.22;5113892;28;20031;-36
2023/04/16 02:50:34;;;;;;;5.73;3.17;;;;;;;7.68;100.00;102172.66;5114723;28;20034;-35
2023/04/16 02:52:59;;;;;;;4.30;2.50;;;;;;;7.64;100.00;102174.03;5114103;28;20024;-36
2023/04/16 02:55:25;;;;;;;6.07;2.63;;;;;;;7.68;100.00;102182.59;5114054;28;20019;-36
2023/04/16 02:57:51;;;;;;;6.97;3.72;;;;;;;7.71;100.00;102187.59;5114072;28;20019;-36
2023/04/16 03:00:17;;;;;;;5.65;3.05;;;;;;;7.72;100.00;102192.81;5114412;28;20371;-36
2023/04/16 03:02:42;;;;;;;6.78;3.40;;;;;;;7.71;100.00;102184.91;5113954;28;20019;-36
2023/04/16 03:05:08;;;;;;;8.50;3.10;;;;;;;7.59;100.00;102175.59;5114812;28;20076;-35
2023/04/16 03:07:34;;;;;;;6.70;3.15;;;;;;;7.72;100.00;102194.69;5113929;28;20023;-35
2023/04/16 03:09:59;;;;;;;10.65;4.32;;;;;;;7.70;100.00;102200.22;5114255;28;20466;-36
2023/04/16 03:12:25;;;;;;;7.78;3.70;;;;;;;7.68;100.00;102201.44;5114701;28;20073;-35
2023/04/16 03:14:53;;;;;;;10.43;3.97;;;;;;;7.65;100.00;102191.00;5113920;28;20513;-35
2023/04/16 03:17:18;;;;;;;11.00;5.57;;;;;;;7.60;100.00;102194.22;5113855;28;20139;-35
2023/04/16 03:19:44;;;;;;;7.80;4.00;;;;;;;7.58;100.00;102190.06;5114418;28;20130;-35
2023/04/16 03:22:09;;;;;;;8.43;4.40;;;;;;;7.63;100.00;102203.81;5113796;28;20654;-35
2023/04/16 03:24:35;;;;;;;10.00;4.60;;;;;;;7.55;100.00;102195.78;5114383;28;20435;-35
2023/04/16 03:27:01;;;;;;;10.75;5.10;;;;;;;7.63;100.00;102214.59;5114345;28;20724;-36
2023/04/16 03:29:26;;;;;;;9.07;5.28;;;;;;;7.61;100.00;102197.75;5113416;28;20020;-35
2023/04/16 03:31:52;;;;;;;8.27;5.47;;;;;;;7.60;100.00;102198.78;5114101;28;20042;-35
2023/04/16 03:34:17;;;;;;;9.20;5.00;;;;;;;7.59;100.00;102192.56;5113399;28;20343;-36
2023/04/16 03:36:42;;;;;;;8.17;5.10;;;;;;;7.63;100.00;102195.75;5113818;28;20035;-35
2023/04/16 03:39:07;;;;;;;8.37;5.20;;;;;;;7.71;100.00;102211.81;5114009;28;20095;-35
2023/04/16 03:41:33;;;;;;;9.73;5.13;;;;;;;7.69;100.00;102203.94;5113660;28;20044;-35
2023/04/16 03:43:58;;;;;;;7.83;5.00;;;;;;;7.71;100.00;102203.75;5113959;28;20081;-35
2023/04/16 03:46:23;;;;;;;9.03;5.30;;;;;;;7.71;100.00;102209.13;5113440;28;20035;-35
2023/04/16 03:48:49;;;;;;;7.70;5.20;;;;;;;7.70;100.00;102208.31;5117149;28;20024;-35
2023/04/16 03:51:14;;;;;;;9.03;5.37;;;;;;;7.64;100.00;102198.25;5118055;27;20133;-35
2023/04/16 03:53:40;;;;;;;8.85;5.53;;;;;;;7.71;100.00;102201.06;5117365;28;20026;-36
2023/04/16 03:56:05;;;;;;;8.60;5.57;;;;;;;7.72;100.00;102210.84;5117742;28;20019;-35
2023/04/16 03:58:30;;;;;;;7.82;5.20;;;;;;;7.65;100.00;102199.91;5117333;28;20028;-36
2023/04/16 04:00:56;;;;;;;9.47;5.93;;;;;;;7.71;100.00;102211.81;5117385;28;20047;-36
2023/04/16 04:03:21;;;;;;;8.97;5.50;;;;;;;7.71;100.00;102209.13;5116186;28;20076;-35
2023/04/16 04:05:46;;;;;;;7.13;5.10;;;;;;;7.59;100.00;102192.56;5117214;28;20026;-35
2023/04/16 04:08:12;;;;;;;10.40;5.70;;;;;;;7.65;100.00;102196.41;5117128;28;20102;-35
2023/04/16 04:10:37;;;;;;;9.80;5.60;;;;;;;7.72;100.00;102210.84;5116703;28;20597;-36
2023/04/16 04:13:04;;;;;;;8.77;5.57;;;;;;;7.72;100.00;102213.53;5116978;27;20024;-35
2023/04/16 04:15:30;;;;;;;8.45;5.65;;;;;;;7.70;100.00;102211.00;5117555;28;20012;-35
2023/04/16 04:17:56;;;;;;;6.93;5.35;;;;;;;7.66;100.00;102198.06;5116683;28;20020;-35
2023/04/16 04:20:21;;;;;;;10.27;5.70;;;;;;;7.63;100.00;102201.13;5117433;28;20114;-35
2023/04/16 04:22:47;;;;;;;9.52;6.35;;;;;;;7.63;100.00;102207.34;5116900;28;20359;-35
2023/04/16 04:25:12;;;;;;;10.00;5.97;;;;;;;7.59;100.00;102203.34;5117355;28;20034;-35
2023/04/16 04:27:37;;;;;;;10.80;5.43;;;;;;;7.66;100.00;102208.84;5116412;28;20027;-35
2023/04/16 04:30:05;;;;;;;10.07;5.50;;;;;;;7.66;100.00;102209.69;5117292;27;20027;-35
2023/04/16 04:32:30;;;;;;;10.13;6.00;;;;;;;7.65;100.00;102209.84;5116969;28;20287;-36
2023/04/16 04:34:56;;;;;;;12.57;6.78;;;;;;;7.51;100.00;102200.69;5117481;28;20027;-36
2023/04/16 04:37:22;;;;;;;12.93;6.93;;;;;;;7.64;100.00;102222.47;5116562;28;20324;-36
2023/04/16 04:39:47;;;;;;;7.93;5.28;;;;;;;7.65;100.00;102226.84;5116463;28;20030;-35
2023/04/16 04:42:14;;;;;;;8.40;5.20;;;;;;;7.69;100.00;102230.88;5116469;28;20051;-35
2023/04/16 04:44:39;;;;;;;10.50;5.25;;;;;;;7.57;100.00;102208.06;5117011;28;20241;-35
2023/04/16 04:47:05;;;;;;;9.30;5.23;;;;;;;7.71;100.00;102230.69;5116105;28;20418;-35
2023/04/16 04:49:30;;;;;;;8.17;5.07;;;;;;;7.73;100.00;102237.56;5116307;28;20098;-35
2023/04/16 04:51:56;;;;;;;10.18;6.05;;;;;;;7.66;100.00;102223.16;5116276;28;20578;-35
2023/04/16 04:54:21;;;;;;;10.97;5.60;;;;;;;7.68;100.00;102233.75;5116026;28;20043;-35
2023/04/16 04:56:47;;;;;;;12.23;6.15;;;;;;;7.70;100.00;102231.69;5115250;28;20026;-35
2023/04/16 04:59:12;;;;;;;10.77;5.33;;;;;;;7.67;100.00;102232.06;5116075;28;20055;-35
2023/04/16 05:01:38;;;;;;;10.27;5.60;;;;;;;7.69;100.00;102235.41;5115864;28;20059;-35
2023/04/16 05:04:03;;;;;;;8.90;5.78;;;;;;;7.68;100.00;102233.75;5116352;28;20028;-35
2023/04/16 05:06:29;;;;;;;14.57;6.30;;;;;;;7.69;100.00;102238.94;5116910;28;20023;-35
2023/04/16 05:08:54;;;;;;;13.77;6.70;;;;;;;7.69;100.00;102247.03;5116008;28;20039;-35
2023/04/16 05:11:20;;;;;;;12.57;6.77;;;;;;;7.66;100.00;102241.13;5116275;28;20474;-35
2023/04/16 05:13:45;;;;;;;9.40;5.70;;;;;;;7.59;100.00;102224.88;5115844;28;20605;-35
2023/04/16 05:16:10;;;;;;;10.33;5.70;;;;;;;7.65;100.00;102234.09;5116119;28;20019;-34
2023/04/16 05:18:36;;;;;;;11.50;6.03;;;;;;;7.47;100.00;102211.00;5115847;28;20023;-35
2023/04/16 05:21:01;;;;;;;8.97;5.87;;;;;;;7.65;100.00;102243.00;5115950;28;20020;-35
2023/04/16 05:23:26;;;;;;;9.47;6.37;;;;;;;7.63;100.00;102238.81;5115765;28;20435;-35
2023/04/16 05:25:52;;;;;;;9.73;6.10;;;;;;;7.66;100.00;102251.91;5116007;28;20374;-35
2023/04/16 05:28:17;;;;;;;10.43;6.80;;;;;;;7.65;100.00;102243.00;5115612;28;20455;-35
2023/04/16 05:30:42;;;;;;;10.60;5.97;;;;;;;7.68;100.00;102247.19;5116113;28;20020;-35
2023/04/16 05:33:08;;;;;;;9.27;6.37;;;;;;;7.67;100.00;102249.06;5115466;28;20019;-35
2023/04/16 05:35:34;;;;;;;12.47;6.63;;;;;;;7.69;100.00;102260.47;5115467;28;20276;-36
2023/04/16 05:37:59;;;;;;;10.95;6.93;;;;;;;7.68;100.00;102260.66;5115412;28;20016;-39
2023/04/16 05:40:25;;;;;;;13.13;6.77;;;;;;;7.67;100.00;102256.31;5115849;28;20099;-35
2023/04/16 05:42:50;;;;;;;12.10;7.38;;;;;;;7.66;100.00;102255.47;5115530;28;20708;-35
2023/04/16 05:45:15;;;;;;;12.68;7.47;;;;;;;7.63;100.00;102257.66;5115315;28;20079;-35
2023/04/16 05:47:41;;;;;;;10.83;6.90;;;;;;;7.57;100.00;102261.91;5115211;28;20012;-35
2023/04/16 05:50:06;;;;;;;13.47;7.60;;;;;;;7.61;100.00;102265.06;5115125;28;20306;-35
2023/04/16 05:52:32;;;;;;;15.77;8.70;;;;;;;7.63;100.00;102273.81;5115534;28;20136;-35
2023/04/16 05:55:00;;;;;;;14.00;8.13;;;;;;;7.64;100.00;102275.50;5115067;28;20028;-35
2023/04/16 05:57:26;;;;;;;18.23;8.93;;;;;;;7.64;100.00;102278.19;5115486;28;20023;-35
2023/04/16 05:59:51;;;;;;;14.13;8.55;;;;;;;7.61;100.00;102281.22;5114400;28;20371;-35
2023/04/16 06:02:16;;;;;;;14.70;8.63;;;;;;;7.65;100.00;102282.53;5114932;28;20030;-35
2023/04/16 06:04:42;;;;;;;14.00;8.13;;;;;;;7.65;100.00;102277.16;5115454;28;20015;-36
2023/04/16 06:07:08;;;;;;;15.00;7.65;;;;;;;7.68;100.00;102276.81;5115097;27;20027;-35
2023/04/16 06:09:33;;;;;;;14.37;8.17;;;;;;;7.70;100.00;102280.16;5114517;28;20033;-35
2023/04/16 06:11:59;;;;;;;16.33;8.23;;;;;;;7.71;100.00;102281.84;5114799;28;20023;-35
2023/04/16 06:14:25;;;;;;;13.85;8.25;;;;;;;7.73;100.00;102279.81;5115489;28;20020;-35
2023/04/16 06:16:50;;;;;;;13.60;7.87;;;;;;;7.69;100.00;102278.50;5114496;27;20421;-35
2023/04/16 06:19:15;;;;;;;17.53;9.27;;;;;;;7.69;100.00;102281.19;5114422;28;20106;-35
2023/04/16 06:21:41;;;;;;;15.70;8.07;;;;;;;7.64;100.00;102264.72;5114486;28;20016;-35
2023/04/16 06:24:06;;;;;;;13.70;7.87;;;;;;;7.72;100.00;102278.16;5114689;28;20072;-36
2023/04/16 06:26:32;;;;;;;17.77;9.23;;;;;;;7.69;100.00;102289.25;5114797;28;20497;-36
2023/04/16 06:28:57;;;;;;;15.57;8.73;;;;;;;7.67;100.00;102285.91;5114037;28;20327;-35
2023/04/16 06:31:23;;;;;;;13.77;8.63;;;;;;;7.71;100.00;102292.59;5114959;28;20027;-35
2023/04/16 06:33:48;;;;;;;17.02;8.82;;;;;;;7.63;100.00;102279.22;5114332;28;20281;-35
2023/04/16 06:36:15;;;;;;;17.40;9.17;;;;;;;7.72;100.00;102291.63;5114837;28;20027;-35
2023/04/16 06:38:41;;;;;;;15.00;8.65;;;;;;;7.74;100.00;102297.66;5114269;28;20019;-35
2023/04/16 06:41:06;;;;;;;15.48;8.45;;;;;;;7.73;100.00;102296.81;5113898;28;20428;-36
2023/04/16 06:43:32;;;;;;;17.87;9.00;;;;;;;7.74;100.00;102294.97;5114184;28;20033;-35
2023/04/16 06:45:57;;;;;;;;;;;;;;;7.84;100.00;102300.97;5114914;28;20011;-35
2023/04/16 06:48:23;;;;;;;19.80;8.80;;;;;;;7.80;100.00;102302.31;5114175;28;19998;-35
2023/04/16 06:50:48;;;;;;;17.93;9.77;;;;;;;7.83;100.00;102306.53;5114747;28;20456;-35
2023/04/16 06:53:14;;;;;;;16.13;9.60;;;;;;;7.80;100.00;102307.69;5114091;28;20050;-35
2023/04/16 06:55:39;;;;;;;17.58;9.25;;;;;;;7.83;100.00;102312.75;5113775;28;20027;-35
2023/04/16 06:58:05;;;;;;;18.07;9.70;;;;;;;7.86;100.00;102311.56;5113785;28;20024;-35
2023/04/16 07:00:30;;;;;;;20.50;10.27;;;;;;;7.80;100.00;102302.31;5113763;28;20077;-35
2023/04/16 07:02:56;;;;;;;20.27;9.67;;;;;;;7.88;100.00;102323.00;5113683;28;20289;-36
2023/04/16 07:05:21;;;;;;;17.27;9.90;;;;;;;7.91;100.00;102323.50;5114349;28;20050;-35
2023/04/16 07:07:46;;;;;;;19.30;9.80;;;;;;;7.92;100.00;102321.63;5113626;28;20094;-35
2023/04/16 07:10:12;;;;;;;18.60;9.85;;;;;;;7.87;100.00;102324.84;5114151;28;20371;-35
2023/04/16 07:12:37;;;;;;;20.37;10.47;;;;;;;7.90;100.00;102329.03;5114151;28;20072;-35
2023/04/16 07:15:04;;;;;;;19.73;10.23;;;;;;;7.86;100.00;102323.19;5113996;28;20047;-35
2023/04/16 07:17:29;;;;;;;19.23;10.55;;;;;;;7.90;100.00;102324.47;5114364;28;20034;-36
2023/04/16 07:19:55;;;;;;;19.87;10.40;;;;;;;7.94;100.00;102336.59;5114358;28;20028;-35
2023/04/16 07:22:20;;;;;;;24.57;10.37;;;;;;;7.89;100.00;102322.81;5115187;28;20366;-35
2023/04/16 07:24:45;;;;;;;16.73;10.43;;;;;;;7.97;100.00;102346.19;5117964;28;20020;-36
2023/04/16 07:27:11;;;;;;;23.63;11.40;;;;;;;7.98;100.00;102332.53;5117973;28;20035;-36
2023/04/16 07:29:37;;;;;;;;;;;;;;;8.00;100.00;102341.28;5118861;28;20074;-36
2023/04/16 07:32:02;;;;;;;20.00;10.80;;;;;;;7.93;100.00;102334.91;5118097;28;20302;-36
2023/04/16 07:34:27;;;;;;;19.17;10.43;;;;;;;8.02;100.00;102343.78;5118131;28;20276;-36
2023/04/16 07:36:53;;;;;;;22.23;10.60;;;;;;;8.03;100.00;102344.63;5118553;28;20015;-36
2023/04/16 07:39:18;;;;;;;19.83;11.00;;;;;;;8.04;100.00;102346.28;5117311;28;20119;-36
2023/04/16 07:41:43;;;;;;;18.90;11.07;;;;;;;8.01;100.00;102344.81;5117882;28;20023;-36
2023/04/16 07:44:09;;;;;;;15.43;9.97;;;;;;;8.07;100.00;102349.47;5117552;28;20026;-36
2023/04/16 07:46:34;;;;;;;21.47;11.47;;;;;;;8.07;100.00;102356.72;5117327;28;20023;-36
2023/04/16 07:49:00;;;;;;;20.40;11.27;;;;;;;8.07;100.00;102356.72;5117738;27;20030;-35
2023/04/16 07:51:26;;;;;;;19.63;11.73;;;;;;;8.11;100.00;102350.81;5117722;28;20059;-36
2023/04/16 07:53:51;;;;;;;23.50;12.48;;;;;;;8.04;100.00;102355.22;5117100;28;20020;-36
2023/04/16 07:56:16;;;;;;;22.17;11.43;;;;;;;8.09;100.00;102357.38;5118173;28;20047;-36
2023/04/16 07:58:42;;;;;;;20.57;11.27;;;;;;;8.15;100.00;102371.00;5117854;28;20024;-36
2023/04/16 08:01:07;;;;;;;21.27;11.73;;;;;;;8.12;100.00;102365.13;5117305;28;20096;-36
2023/04/16 08:03:32;;;;;;;19.60;11.77;;;;;;;8.16;100.00;102371.84;5117227;28;20023;-36
2023/04/16 08:05:58;;;;;;;17.67;11.20;;;;;;;8.18;100.00;102376.00;5117471;28;20529;-36
2023/04/16 08:08:23;;;;;;;23.77;11.63;;;;;;;8.22;100.00;102376.50;5117549;28;20027;-36
2023/04/16 08:10:49;;;;;;;19.83;12.07;;;;;;;8.21;100.00;102375.66;5117431;28;20102;-36
2023/04/16 08:13:14;;;;;;;17.98;11.90;;;;;;;8.21;100.00;102370.28;5116702;28;20464;-36
2023/04/16 08:15:40;;;;;;;20.07;11.77;;;;;;;8.27;100.00;102379.50;5117263;28;20020;-36
2023/04/16 08:18:11;;;;;;;18.42;11.32;;;;;;;8.29;100.00;102387.41;5116665;28;20034;-36
2023/04/16 08:20:37;;;;;;;18.35;11.48;;;;;;;8.30;100.00;102392.63;5117045;28;20023;-36
2023/04/16 08:23:02;;;;;;;18.65;11.30;;;;;;;8.35;100.00;102398.31;5117123;28;20027;-36
2023/04/16 08:25:27;;;;;;;19.77;11.60;;;;;;;8.35;100.00;102395.63;5117237;28;20498;-36
2023/04/16 08:27:53;;;;;;;25.70;12.87;;;;;;;8.38;100.00;102397.97;5117078;28;20023;-36
2023/04/16 08:30:18;;;;;;;18.37;11.17;;;;;;;8.41;100.00;102396.81;5117316;28;20023;-36
2023/04/16 08:32:43;;;;;;;24.13;11.82;;;;;;;8.35;100.00;102392.94;5116241;28;20468;-36
2023/04/16 08:35:09;;;;;;;22.40;12.57;;;;;;;8.39;100.00;102399.66;5116693;28;20448;-36
2023/04/16 08:37:34;;;;;;;19.58;11.23;;;;;;;8.43;100.00;102398.28;5116610;28;20027;-36
2023/04/16 08:40:01;;;;;;;20.90;11.07;;;;;;;8.48;100.00;102398.59;5116713;28;20102;-36
2023/04/16 08:42:52;;;;;;;;;;;;;;;8.52;100.00;102405.31;5116856;28;20027;-36
2023/04/16 08:45:17;;;;;;;16.90;10.00;;;;;;;8.54;100.00;102396.19;5112790;28;19903;-36
2023/04/16 08:47:49;;;;;;;19.67;11.18;;;;;;;8.50;100.00;102401.97;5116326;28;20088;-36
2023/04/16 08:50:16;;;;;;;19.90;11.27;;;;;;;8.51;100.00;102410.88;5116926;28;20024;-36
2023/04/16 08:52:46;;;;;;;17.08;10.88;;;;;;;8.55;100.00;102408.69;5116225;28;20027;-36
2023/04/16 08:55:15;;;;;;;20.30;10.85;;;;;;;8.60;100.00;102411.66;5115933;28;20020;-36
2023/04/16 08:57:49;;;;;;;20.85;11.82;;;;;;;8.63;100.00;102405.91;5116117;28;20447;-36
2023/04/16 09:00:15;;;;;;;20.58;11.63;;;;;;;8.63;100.00;102409.44;5116780;28;20410;-36
2023/04/16 09:02:41;;;;;;;;;;;;;;;8.69;100.00;102416.81;5117108;28;20456;-36
2023/04/16 09:05:07;;;;;;;19.23;11.10;;;;;;;8.66;100.00;102409.09;5116370;27;19911;-36
2023/04/16 09:07:33;;;;;;;16.88;11.35;;;;;;;8.70;100.00;102417.66;5116245;28;20077;-36
2023/04/16 09:10:00;;;;;;;18.55;11.38;;;;;;;8.71;100.00;102422.03;5115965;28;20440;-36
2023/04/16 09:12:26;;;;;;;20.05;11.07;;;;;;;8.68;100.00;102415.13;5115678;28;20447;-36
2023/04/16 09:14:52;;;;;;;21.23;11.05;;;;;;;8.77;100.00;102419.44;5116177;28;20020;-36
2023/04/16 09:17:18;;;;;;;;;;;;;;;8.84;100.00;102424.97;5116036;28;20024;-36
2023/04/16 09:19:44;;;;;;;21.42;12.23;;;;;;;8.79;100.00;102427.38;5115825;28;20316;-36
2023/04/16 09:22:11;;;;;;;17.48;11.05;;;;;;;8.81;100.00;102427.19;5115634;28;20110;-36
2023/04/16 09:24:37;;;;;;;18.77;11.02;;;;;;;8.79;100.00;102423.84;5116495;28;20023;-36
2023/04/16 09:27:03;;;;;;;14.30;10.18;;;;;;;8.76;100.00;102427.72;5116192;28;20051;-36
2023/04/16 09:29:36;;;;;;;23.83;12.85;;;;;;;8.73;100.00;102428.91;5115238;28;20016;-35
2023/04/16 09:32:04;;;;;;;19.20;11.63;;;;;;;8.79;100.00;102438.16;5116053;28;20028;-35
2023/04/16 09:34:32;;;;;;;16.35;11.27;;;;;;;8.83;100.00;102436.75;5115199;27;20460;-35
2023/04/16 09:37:14;;;;;;;17.67;11.80;;;;;;;8.82;100.00;102437.78;5115695;28;20027;-35
2023/04/16 09:39:41;;;;;;;19.67;11.35;;;;;;;8.85;100.00;102437.44;5116199;28;20024;-36
2023/04/16 09:42:07;;;;;;;23.83;12.55;;;;;;;8.82;100.00;102435.09;5115856;28;20440;-35
2023/04/16 09:44:36;;;;;;;20.30;12.53;;;;;;;8.87;100.00;102448.88;5114433;28;20080;-36
2023/04/16 09:47:06;;;;;;;18.15;11.98;;;;;;;8.88;100.00;102439.78;5115567;28;20244;-35
2023/04/16 09:49:35;;;;;;;21.15;11.38;;;;;;;8.86;100.00;102440.97;5114176;28;20199;-35
2023/04/16 09:52:01;;;;;;;24.67;12.80;;;;;;;8.97;100.00;102451.31;5115465;28;20037;-35
2023/04/16 09:54:26;;;;;;;;;;;;;;;9.05;100.00;102450.44;5115469;28;20028;-35
2023/04/16 09:56:55;;;;;;;20.23;12.30;;;;;;;9.00;100.00;102459.91;5113817;28;20359;-35
2023/04/16 09:59:22;;;;;;;16.70;12.18;;;;;;;8.98;100.00;102448.47;5115219;28;20015;-35
2023/04/16 10:01:48;;;;;;;18.38;12.68;;;;;;;9.02;100.00;102460.53;5114540;28;20051;-35
2023/04/16 10:04:14;;;;;;;19.20;12.27;;;;;;;8.97;100.00;102448.63;5114854;28;20038;-35
2023/04/16 10:06:40;;;;;;;18.95;12.82;;;;;;;8.97;100.00;102449.44;5114720;28;20019;-35
2023/04/16 10:09:07;;;;;;;17.45;11.70;;;;;;;9.06;100.00;102454.78;5114955;28;20451;-35
2023/04/16 10:11:33;;;;;;;16.77;12.60;;;;;;;9.02;100.00;102444.34;5114532;28;20111;-35
2023/04/16 10:13:59;;;;;;;15.88;12.50;;;;;;;9.11;100.00;102464.03;5115046;28;20019;-35
2023/04/16 10:16:25;;;;;;;14.10;11.57;;;;;;;9.14;100.00;102462.84;5115072;28;20027;-35
2023/04/16 10:18:51;;;;;;;15.52;11.10;;;;;;;9.11;100.00;102458.63;5114461;28;20070;-35
2023/04/16 10:21:18;;;;;;;16.27;11.45;;;;;;;9.13;100.00;102456.59;5114618;28;20029;-35
2023/04/16 10:23:43;;;;;;;18.38;11.65;;;;;;;9.07;100.00;102448.38;5115135;28;20397;-35
2023/04/16 10:26:09;;;;;;;14.00;11.23;;;;;;;9.10;100.00;102466.91;5114625;28;20035;-35
2023/04/16 10:28:35;;;;;;;17.88;11.90;;;;;;;9.16;100.00;102455.38;5114522;28;20027;-35
2023/04/16 10:31:03;;;;;;;19.02;11.65;;;;;;;9.16;100.00;102468.88;5115414;28;20027;-36
2023/04/16 10:33:31;;;;;;;15.68;10.95;;;;;;;9.16;100.00;102460.78;5114656;28;20023;-36
2023/04/16 10:36:14;;;;;;;14.98;11.07;;;;;;;9.20;100.00;102467.50;5114717;28;20047;-36
2023/04/16 10:38:45;;;;;;;15.95;11.38;;;;;;;9.20;100.00;102467.50;5114618;28;20020;-36
2023/04/16 10:41:10;;;;;;;15.73;10.73;;;;;;;9.17;100.00;102459.75;5114265;28;20448;-36
2023/04/16 10:43:47;;;;;;;15.10;11.27;;;;;;;9.17;100.00;102468.69;5114341;28;20035;-36
2023/04/16 10:46:35;;;;;;;16.70;10.95;;;;;;;9.23;100.00;102472.53;5114678;28;20027;-36
2023/04/16 10:49:02;;;;;;;15.70;11.05;;;;;;;9.15;100.00;102461.81;5114547;28;20042;-36
2023/04/16 10:51:30;;;;;;;14.75;10.40;;;;;;;9.17;100.00;102459.75;5114512;28;20023;-36
2023/04/16 10:54:15;;;;;;;14.98;10.48;;;;;;;9.27;100.00;102476.53;5114424;28;20027;-36
2023/04/16 10:56:44;;;;;;;13.85;10.43;;;;;;;9.28;100.00;102475.53;5099284;28;20487;-36
2023/04/16 10:59:10;;;;;;;14.30;10.88;;;;;;;9.30;100.00;102470.78;5113832;28;20023;-36
2023/04/16 11:01:40;;;;;;;13.57;10.40;;;;;;;9.35;100.00;102475.63;5114447;28;20052;-36
2023/04/16 11:04:20;;;;;;;16.63;10.40;;;;;;;9.36;100.00;102467.34;5114655;28;20106;-36
2023/04/16 11:07:12;;;;;;;12.90;10.10;;;;;;;9.40;100.00;102468.66;5114661;28;20448;-36
2023/04/16 11:09:45;;;;;;;11.95;8.60;;;;;;;9.41;100.00;102464.09;5114098;28;20069;-36
2023/04/16 11:12:12;;;;;;;13.30;9.40;;;;;;;9.36;100.00;102455.69;5114318;28;20032;-36
2023/04/16 11:14:40;;;;;;;11.18;8.43;;;;;;;9.43;100.00;102468.28;5114026;28;20020;-36